createdAt,value
2022-10-23T00:01:19.686Z,15.18
2022-10-23T00:03:47.449Z,15.80
2022-10-23T00:06:15.246Z,14.40
2022-10-23T00:08:42.773Z,13.25
2022-10-23T00:11:11.543Z,14.65
2022-10-23T00:13:38.856Z,15.82
2022-10-23T00:16:06.061Z,14.32
2022-10-23T00:18:33.635Z,15.32
2022-10-23T00:21:00.920Z,14.27
2022-10-23T00:23:27.624Z,19.40
2022-10-23T00:25:54.282Z,13.27
2022-10-23T00:28:21.072Z,13.52
2022-10-23T00:30:47.778Z,16.83
2022-10-23T00:33:14.508Z,17.52
2022-10-23T00:35:41.882Z,10.65
2022-10-23T00:38:09.358Z,15.43
2022-10-23T00:40:36.706Z,11.98
2022-10-23T00:43:04.062Z,17.42
2022-10-23T00:45:33.451Z,14.15
2022-10-23T00:48:03.942Z,14.95
2022-10-23T00:50:33.161Z,17.52
2022-10-23T00:53:03.221Z,16.05
2022-10-23T00:55:32.198Z,13.23
2022-10-23T00:57:59.672Z,13.35
2022-10-23T01:00:40.555Z,12.32
2022-10-23T01:03:07.544Z,14.25
2022-10-23T01:05:44.405Z,13.30
2022-10-23T01:08:18.120Z,15.80
2022-10-23T01:10:49.998Z,12.52
2022-10-23T01:13:39.930Z,13.10
2022-10-23T01:16:16.706Z,14.02
2022-10-23T01:19:01.726Z,14.13
2022-10-23T01:21:44.889Z,14.40
2022-10-23T01:24:37.556Z,14.60
2022-10-23T01:27:21.324Z,12.30
2022-10-23T01:30:12.983Z,12.05
2022-10-23T01:32:48.228Z,13.43
2022-10-23T01:35:28.973Z,13.15
2022-10-23T01:38:07.587Z,16.48
2022-10-23T01:40:49.032Z,14.82
2022-10-23T01:43:20.324Z,11.60
2022-10-23T01:45:52.366Z,12.88
2022-10-23T01:48:24.923Z,11.45
2022-10-23T01:50:55.350Z,13.25
2022-10-23T01:55:50.345Z,15.20
2022-10-23T01:58:21.049Z,12.50
2022-10-23T02:00:49.210Z,15.75
2022-10-23T02:03:18.087Z,15.68
2022-10-23T02:05:45.521Z,16.33
2022-10-23T02:08:12.632Z,17.48
2022-10-23T02:10:42.329Z,14.07
2022-10-23T02:13:34.425Z,14.30
2022-10-23T02:16:13.129Z,13.13
2022-10-23T02:18:45.258Z,14.82
2022-10-23T02:21:20.579Z,12.15
2022-10-23T02:24:13.590Z,14.30
2022-10-23T02:26:51.993Z,16.77
2022-10-23T02:29:28.013Z,15.32
2022-10-23T02:31:54.684Z,10.85
2022-10-23T02:34:21.586Z,14.52
2022-10-23T02:36:48.345Z,13.15
2022-10-23T02:39:15.030Z,16.02
2022-10-23T02:41:58.844Z,12.32
2022-10-23T02:45:00.552Z,15.40
2022-10-23T02:48:04.609Z,14.02
2022-10-23T02:50:39.342Z,13.95
2022-10-23T02:53:33.368Z,14.32
2022-10-23T02:56:03.111Z,13.00
2022-10-23T02:58:44.468Z,13.00
2022-10-23T03:01:18.392Z,13.70
2022-10-23T03:03:52.519Z,16.00
2022-10-23T03:06:20.350Z,14.85
2022-10-23T03:08:54.848Z,12.68
2022-10-23T03:11:21.495Z,13.85
2022-10-23T03:13:48.145Z,15.65
2022-10-23T03:16:14.841Z,12.85
2022-10-23T03:18:41.612Z,12.02
2022-10-23T03:21:08.684Z,12.65
2022-10-23T03:23:35.473Z,15.00
2022-10-23T03:26:02.125Z,14.15
2022-10-23T03:28:28.811Z,18.38
2022-10-23T03:30:55.991Z,13.18
2022-10-23T03:33:23.209Z,11.73
2022-10-23T03:35:49.949Z,14.50
2022-10-23T03:38:17.030Z,13.98
2022-10-23T03:40:43.715Z,12.73
2022-10-23T03:43:10.380Z,14.65
2022-10-23T03:45:38.471Z,16.77
2022-10-23T03:48:08.224Z,13.38
2022-10-23T03:50:35.944Z,16.70
2022-10-23T03:53:02.682Z,12.25
2022-10-23T03:55:30.394Z,18.15
2022-10-23T03:57:57.047Z,12.27
2022-10-23T04:00:23.798Z,10.43
2022-10-23T04:02:50.577Z,12.38
2022-10-23T04:05:17.251Z,13.30
2022-10-23T04:07:44.000Z,13.35
2022-10-23T04:10:10.646Z,13.18
2022-10-23T04:12:37.364Z,10.27
2022-10-23T04:15:04.567Z,15.05
2022-10-23T04:17:31.266Z,12.52
2022-10-23T04:19:57.895Z,15.20
2022-10-23T04:22:27.504Z,17.20
2022-10-23T04:24:55.304Z,16.83
2022-10-23T04:27:22.370Z,14.80
2022-10-23T04:29:49.296Z,13.57
2022-10-23T04:32:16.078Z,14.13
2022-10-23T04:34:42.883Z,12.80
2022-10-23T04:37:09.722Z,13.65
2022-10-23T04:39:36.367Z,15.73
2022-10-23T04:42:03.107Z,17.00
2022-10-23T04:44:29.793Z,12.18
2022-10-23T04:46:56.444Z,11.60
2022-10-23T04:49:23.102Z,14.07
2022-10-23T04:51:49.790Z,10.55
2022-10-23T04:54:16.458Z,12.27
2022-10-23T04:56:43.136Z,12.32
2022-10-23T04:59:09.839Z,10.50
2022-10-23T05:01:36.676Z,12.63
2022-10-23T05:04:03.623Z,8.18
2022-10-23T05:06:30.313Z,10.95
2022-10-23T05:08:57.009Z,10.75
2022-10-23T05:11:24.375Z,11.32
2022-10-23T05:13:51.040Z,9.02
2022-10-23T05:16:27.966Z,11.50
2022-10-23T05:18:54.855Z,10.90
2022-10-23T05:21:26.950Z,9.43
2022-10-23T05:23:54.856Z,13.35
2022-10-23T05:26:22.442Z,13.32
2022-10-23T05:28:49.447Z,12.40
2022-10-23T05:31:17.797Z,10.05
2022-10-23T05:33:44.488Z,11.85
2022-10-23T05:36:12.574Z,14.07
2022-10-23T05:38:39.411Z,9.88
2022-10-23T05:41:06.354Z,11.30
2022-10-23T05:43:33.030Z,8.40
2022-10-23T05:45:59.839Z,9.55
2022-10-23T05:48:34.972Z,13.20
2022-10-23T05:51:06.462Z,10.15
2022-10-23T05:53:33.306Z,10.32
2022-10-23T05:56:06.756Z,9.80
2022-10-23T05:58:34.252Z,11.82
2022-10-23T06:01:06.076Z,8.60
2022-10-23T06:03:33.134Z,11.52
2022-10-23T06:05:59.823Z,10.48
2022-10-23T06:08:26.535Z,11.23
2022-10-23T06:10:53.471Z,8.38
2022-10-23T06:13:20.132Z,11.65
2022-10-23T06:15:46.840Z,11.75
2022-10-23T06:18:13.526Z,9.18
2022-10-23T06:20:41.314Z,15.48
2022-10-23T06:23:08.338Z,10.35
2022-10-23T06:25:35.008Z,11.27
2022-10-23T06:28:01.763Z,9.60
2022-10-23T06:30:28.521Z,12.90
2022-10-23T06:32:55.449Z,13.57
2022-10-23T06:35:22.120Z,11.23
2022-10-23T06:37:48.799Z,11.02
2022-10-23T06:40:15.569Z,11.75
2022-10-23T06:42:42.502Z,10.18
2022-10-23T06:45:09.374Z,12.52
2022-10-23T06:47:36.059Z,12.35
2022-10-23T06:50:02.814Z,9.63
2022-10-23T06:52:47.846Z,12.63
2022-10-23T06:55:14.932Z,9.38
2022-10-23T06:57:42.518Z,10.60
2022-10-23T07:00:10.282Z,13.98
2022-10-23T07:02:37.269Z,10.52
2022-10-23T07:05:04.475Z,12.20
2022-10-23T07:07:31.335Z,11.02
2022-10-23T07:09:58.092Z,11.95
2022-10-23T07:12:24.905Z,13.05
2022-10-23T07:14:51.577Z,9.90
2022-10-23T07:17:18.283Z,11.10
2022-10-23T07:19:46.969Z,11.02
2022-10-23T07:22:15.880Z,14.57
2022-10-23T07:24:43.075Z,10.98
2022-10-23T07:27:09.750Z,10.35
2022-10-23T07:29:37.018Z,13.65
2022-10-23T07:32:04.574Z,8.07
2022-10-23T07:34:32.170Z,12.85
2022-10-23T07:36:58.939Z,12.88
2022-10-23T07:39:25.800Z,9.55
2022-10-23T07:41:52.648Z,13.20
2022-10-23T07:44:21.056Z,11.23
2022-10-23T07:46:49.845Z,10.27
2022-10-23T07:49:16.575Z,12.68
2022-10-23T07:51:45.502Z,9.05
2022-10-23T07:54:15.571Z,12.20
2022-10-23T07:56:42.308Z,10.30
2022-10-23T07:59:14.190Z,10.15
2022-10-23T08:01:42.641Z,10.57
2022-10-23T08:04:10.526Z,14.05
2022-10-23T08:06:37.391Z,9.52
2022-10-23T08:09:06.559Z,8.88
2022-10-23T08:11:35.822Z,10.55
2022-10-23T08:14:04.877Z,9.13
2022-10-23T08:16:37.286Z,10.95
2022-10-23T08:19:05.612Z,11.40
2022-10-23T08:21:32.503Z,9.50
2022-10-23T08:24:00.088Z,11.10
2022-10-23T08:26:31.162Z,12.45
2022-10-23T08:29:01.045Z,8.68
2022-10-23T08:31:28.085Z,8.30
2022-10-23T08:33:54.765Z,9.15
2022-10-23T08:36:24.025Z,13.15
2022-10-23T08:38:55.307Z,7.82
2022-10-23T08:41:28.058Z,10.13
2022-10-23T08:44:20.872Z,11.15
2022-10-23T08:46:55.871Z,8.35
2022-10-23T08:49:51.827Z,8.43
2022-10-23T08:52:34.010Z,8.52
2022-10-23T08:55:23.365Z,9.57
2022-10-23T08:58:10.982Z,11.57
2022-10-23T09:00:37.657Z,7.22
2022-10-23T09:03:05.668Z,11.65
2022-10-23T09:05:46.141Z,10.85
2022-10-23T09:08:25.546Z,9.68
2022-10-23T09:11:47.308Z,8.88
2022-10-23T09:14:44.404Z,9.68
2022-10-23T09:17:24.236Z,8.93
2022-10-23T09:20:13.157Z,10.07
2022-10-23T09:22:41.259Z,8.40
2022-10-23T09:25:16.016Z,9.23
2022-10-23T09:27:54.711Z,7.70
2022-10-23T09:30:38.392Z,7.50
2022-10-23T09:33:37.296Z,9.07
2022-10-23T09:36:18.839Z,7.70
2022-10-23T09:38:45.464Z,8.52
2022-10-23T09:41:36.239Z,10.23
2022-10-23T09:44:17.380Z,9.77
2022-10-23T09:46:45.657Z,10.10
2022-10-23T09:49:24.008Z,12.32
2022-10-23T09:52:09.589Z,9.95
2022-10-23T09:54:44.395Z,8.13
2022-10-23T09:57:47.092Z,8.95
2022-10-23T10:00:19.487Z,9.93
2022-10-23T10:03:06.593Z,7.38
2022-10-23T10:05:36.166Z,6.95
2022-10-23T10:08:37.428Z,8.65
2022-10-23T10:11:35.356Z,10.05
2022-10-23T10:14:26.941Z,9.27
2022-10-23T10:17:12.125Z,8.88
2022-10-23T10:20:18.827Z,7.63
2022-10-23T10:23:12.604Z,9.45
2022-10-23T10:25:51.296Z,10.27
2022-10-23T10:28:40.588Z,7.05
2022-10-23T10:31:33.388Z,6.25
2022-10-23T10:34:07.046Z,7.47
2022-10-23T10:36:56.755Z,8.95
2022-10-23T10:39:43.106Z,7.57
2022-10-23T10:42:28.401Z,6.70
2022-10-23T10:44:58.901Z,7.22
2022-10-23T10:47:57.608Z,10.65
2022-10-23T10:50:41.822Z,6.15
2022-10-23T10:53:30.126Z,7.47
2022-10-23T10:56:01.997Z,6.97
2022-10-23T10:58:39.083Z,10.60
2022-10-23T11:01:26.503Z,7.07
2022-10-23T11:04:22.191Z,7.32
2022-10-23T11:06:53.890Z,8.00
2022-10-23T11:09:24.301Z,6.63
2022-10-23T11:11:51.086Z,6.88
2022-10-23T11:14:33.724Z,6.55
2022-10-23T11:17:15.068Z,10.90
2022-10-23T11:19:47.112Z,10.73
2022-10-23T11:22:42.011Z,5.82
2022-10-23T11:25:44.026Z,9.70
2022-10-23T11:28:13.560Z,4.53
2022-10-23T11:31:14.100Z,6.82
2022-10-23T11:34:27.172Z,10.98
2022-10-23T11:36:59.230Z,7.28
2022-10-23T11:39:33.733Z,6.97
2022-10-23T11:42:13.878Z,6.07
2022-10-23T11:44:50.827Z,6.93
2022-10-23T11:47:29.801Z,8.23
2022-10-23T11:50:08.459Z,5.00
2022-10-23T11:53:09.222Z,8.63
2022-10-23T11:55:39.324Z,7.40
2022-10-23T11:58:49.315Z,6.35
2022-10-23T12:01:39.979Z,8.32
2022-10-23T12:04:12.895Z,5.80
2022-10-23T12:06:44.302Z,7.05
2022-10-23T12:09:31.646Z,8.25
2022-10-23T12:12:05.383Z,7.32
2022-10-23T12:14:49.350Z,8.45
2022-10-23T12:17:27.942Z,8.43
2022-10-23T12:20:15.823Z,9.40
2022-10-23T12:23:00.674Z,6.97
2022-10-23T12:25:58.323Z,6.90
2022-10-23T12:28:33.176Z,7.43
2022-10-23T12:31:20.934Z,6.32
2022-10-23T12:33:53.430Z,8.95
2022-10-23T12:36:40.768Z,8.85
2022-10-23T12:39:27.272Z,6.57
2022-10-23T12:41:54.165Z,7.32
2022-10-23T12:44:22.723Z,6.50
2022-10-23T12:46:51.323Z,7.43
2022-10-23T12:49:20.963Z,15.38
2022-10-23T12:51:56.683Z,6.88
2022-10-23T12:54:23.789Z,5.00
2022-10-23T12:56:53.039Z,8.48
2022-10-23T12:59:26.933Z,7.72
2022-10-23T13:01:55.073Z,7.03
2022-10-23T13:04:33.362Z,6.68
2022-10-23T13:07:03.473Z,6.57
2022-10-23T13:09:38.484Z,7.47
2022-10-23T13:12:07.322Z,8.15
2022-10-23T13:14:39.471Z,5.47
2022-10-23T13:17:11.206Z,5.90
2022-10-23T13:19:38.299Z,5.40
2022-10-23T13:22:20.252Z,9.93
2022-10-23T13:24:47.390Z,8.88
2022-10-23T13:27:34.463Z,10.07
2022-10-23T13:30:01.174Z,8.35
2022-10-23T13:32:30.539Z,8.23
2022-10-23T13:35:10.367Z,6.77
2022-10-23T13:37:48.317Z,6.78
2022-10-23T13:40:27.481Z,5.07
2022-10-23T13:42:56.060Z,9.40
2022-10-23T13:45:25.245Z,7.90
2022-10-23T13:47:52.334Z,7.60
2022-10-23T13:50:19.622Z,9.73
2022-10-23T13:52:46.418Z,7.75
2022-10-23T13:55:23.710Z,9.73
2022-10-23T13:57:50.538Z,6.72
2022-10-23T14:00:18.179Z,6.07
2022-10-23T14:02:45.331Z,8.75
2022-10-23T14:05:12.600Z,7.40
2022-10-23T14:07:39.341Z,9.25
2022-10-23T14:10:06.496Z,7.68
2022-10-23T14:12:43.699Z,8.48
2022-10-23T14:15:11.475Z,11.43
2022-10-23T14:17:38.519Z,10.55
2022-10-23T14:20:06.367Z,6.30
2022-10-23T14:22:33.502Z,8.18
2022-10-23T14:25:00.246Z,9.63
2022-10-23T14:27:26.987Z,8.13
2022-10-23T14:29:53.695Z,7.47
2022-10-23T14:32:20.342Z,10.40
2022-10-23T14:34:51.302Z,9.73
2022-10-23T14:37:19.456Z,7.82
2022-10-23T14:39:49.998Z,9.88
2022-10-23T14:42:17.222Z,6.53
2022-10-23T14:44:44.829Z,7.70
2022-10-23T14:47:11.792Z,9.02
2022-10-23T14:49:40.185Z,6.32
2022-10-23T14:52:07.689Z,7.00
2022-10-23T14:54:36.301Z,9.65
2022-10-23T14:57:03.708Z,7.47
2022-10-23T14:59:30.525Z,8.85
2022-10-23T15:01:57.190Z,9.57
2022-10-23T15:04:23.983Z,8.55
2022-10-23T15:06:50.953Z,9.18
2022-10-23T15:09:20.036Z,9.98
2022-10-23T15:11:47.195Z,7.75
2022-10-23T15:14:14.022Z,6.65
2022-10-23T15:16:41.985Z,7.30
2022-10-23T15:19:17.170Z,9.45
2022-10-23T15:21:46.243Z,7.72
2022-10-23T15:24:13.120Z,11.32
2022-10-23T15:26:42.746Z,9.85
2022-10-23T15:29:11.156Z,10.27
2022-10-23T15:31:37.851Z,8.13
2022-10-23T15:34:05.933Z,7.82
2022-10-23T15:36:32.997Z,9.95
2022-10-23T15:38:59.807Z,7.97
2022-10-23T15:41:32.233Z,8.07
2022-10-23T15:43:59.957Z,10.27
2022-10-23T15:46:27.144Z,6.38
2022-10-23T15:48:54.175Z,7.15
2022-10-23T15:51:21.081Z,9.00
2022-10-23T15:53:47.864Z,9.38
2022-10-23T15:56:14.745Z,9.48
2022-10-23T15:58:41.490Z,10.93
2022-10-23T16:01:08.642Z,6.60
2022-10-23T16:03:38.182Z,9.40
2022-10-23T16:06:10.327Z,6.47
2022-10-23T16:08:38.039Z,11.27
2022-10-23T16:11:11.989Z,16.40
2022-10-23T16:13:38.644Z,10.65
2022-10-23T16:16:05.686Z,6.80
2022-10-23T16:18:32.380Z,5.65
2022-10-23T16:20:59.046Z,8.20
2022-10-23T16:23:28.139Z,8.25
2022-10-23T16:25:55.333Z,7.75
2022-10-23T16:28:22.062Z,8.32
2022-10-23T16:30:48.855Z,6.82
2022-10-23T16:33:15.533Z,11.13
2022-10-23T16:35:42.263Z,9.25
2022-10-23T16:38:08.997Z,6.18
2022-10-23T16:40:35.682Z,10.32
2022-10-23T16:43:02.393Z,11.68
2022-10-23T16:45:29.066Z,6.97
2022-10-23T16:47:55.918Z,9.70
2022-10-23T16:50:23.201Z,10.10
2022-10-23T16:52:52.091Z,12.65
2022-10-23T16:55:22.113Z,8.48
2022-10-23T16:57:48.806Z,10.57
2022-10-23T17:00:15.795Z,8.02
2022-10-23T17:02:42.805Z,6.85
2022-10-23T17:05:09.733Z,8.80
2022-10-23T17:07:37.181Z,7.93
2022-10-23T17:10:04.333Z,9.77
2022-10-23T17:12:31.091Z,7.30
2022-10-23T17:14:58.180Z,6.88
2022-10-23T17:17:26.669Z,14.98
2022-10-23T17:19:53.351Z,7.72
2022-10-23T17:22:20.133Z,10.70
2022-10-23T17:24:50.128Z,10.32
2022-10-23T17:27:20.555Z,7.13
2022-10-23T17:29:47.504Z,6.22
2022-10-23T17:32:14.302Z,10.57
2022-10-23T17:34:41.083Z,8.05
2022-10-23T17:37:07.996Z,7.80
2022-10-23T17:39:34.729Z,8.30
2022-10-23T17:42:01.416Z,12.05
2022-10-23T17:44:29.139Z,6.85
2022-10-23T17:46:55.847Z,10.10
2022-10-23T17:49:24.074Z,8.35
2022-10-23T17:51:53.955Z,8.20
2022-10-23T17:54:21.162Z,12.40
2022-10-23T17:56:47.846Z,10.32
2022-10-23T17:59:18.762Z,9.90
2022-10-23T18:01:49.039Z,10.50
2022-10-23T18:04:18.845Z,8.82
2022-10-23T18:06:48.556Z,11.50
2022-10-23T18:09:16.487Z,8.60
2022-10-23T18:11:48.202Z,9.82
2022-10-23T18:14:17.350Z,7.45
2022-10-23T18:16:45.563Z,8.23
2022-10-23T18:19:12.800Z,15.45
2022-10-23T18:21:40.227Z,6.75
2022-10-23T18:24:07.832Z,9.68
2022-10-23T18:26:35.315Z,12.73
2022-10-23T18:29:04.322Z,9.43
2022-10-23T18:31:31.059Z,9.23
2022-10-23T18:34:04.180Z,9.15
2022-10-23T18:36:33.618Z,6.53
2022-10-23T18:39:00.728Z,8.90
2022-10-23T18:41:31.875Z,10.98
2022-10-23T18:43:58.555Z,9.43
2022-10-23T18:46:25.271Z,8.57
2022-10-23T18:48:51.996Z,8.85
2022-10-23T18:51:28.111Z,7.88
2022-10-23T18:53:55.314Z,9.82
2022-10-23T18:56:24.476Z,8.18
2022-10-23T18:58:55.483Z,9.18
2022-10-23T19:01:23.677Z,8.35
2022-10-23T19:03:51.417Z,9.73
2022-10-23T19:06:18.683Z,8.15
2022-10-23T19:08:45.906Z,9.68
2022-10-23T19:11:14.332Z,7.80
2022-10-23T19:13:41.897Z,6.88
2022-10-23T19:16:14.590Z,9.68
2022-10-23T19:18:45.182Z,11.82
2022-10-23T19:21:12.647Z,10.50
2022-10-23T19:23:41.990Z,14.00
2022-10-23T19:26:11.970Z,10.27
2022-10-23T19:28:42.400Z,9.23
2022-10-23T19:31:10.053Z,7.45
2022-10-23T19:33:38.881Z,8.00
2022-10-23T19:36:08.855Z,5.63
2022-10-23T19:38:40.252Z,11.82
2022-10-23T19:41:07.226Z,9.20
2022-10-23T19:43:34.180Z,9.93
2022-10-23T19:46:04.962Z,10.95
2022-10-23T19:48:34.540Z,11.00
2022-10-23T19:51:01.711Z,10.00
2022-10-23T19:53:28.667Z,8.63
2022-10-23T19:56:03.524Z,6.82
2022-10-23T19:58:30.199Z,8.38
2022-10-23T20:00:57.006Z,11.57
2022-10-23T20:03:23.826Z,11.63
2022-10-23T20:05:50.607Z,10.13
2022-10-23T20:08:18.041Z,12.00
2022-10-23T20:10:46.525Z,7.65
2022-10-23T20:13:19.761Z,5.70
2022-10-23T20:15:46.798Z,7.03
2022-10-23T20:18:13.484Z,5.93
2022-10-23T20:20:41.635Z,8.77
2022-10-23T20:23:08.400Z,5.45
2022-10-23T20:25:35.334Z,3.60
2022-10-23T20:28:02.512Z,5.18
2022-10-23T20:30:29.273Z,4.28
2022-10-23T20:32:56.036Z,4.07
2022-10-23T20:35:22.771Z,5.07
2022-10-23T20:37:49.486Z,6.10
2022-10-23T20:40:16.223Z,4.88
2022-10-23T20:42:42.943Z,5.25
2022-10-23T20:45:10.309Z,5.85
2022-10-23T20:47:36.997Z,4.75
2022-10-23T20:50:03.976Z,5.80
2022-10-23T20:54:59.779Z,3.92
2022-10-23T20:57:26.464Z,4.68
2022-10-23T20:59:53.307Z,4.80
2022-10-23T21:02:20.071Z,6.38
2022-10-23T21:04:47.663Z,4.60
2022-10-23T21:07:14.405Z,3.70
2022-10-23T21:09:41.142Z,5.32
2022-10-23T21:12:08.597Z,6.60
2022-10-23T21:14:35.887Z,5.00
2022-10-23T21:17:02.886Z,6.72
2022-10-23T21:19:29.623Z,1.92
2022-10-23T21:21:56.842Z,6.35
2022-10-23T21:24:24.581Z,5.45
2022-10-23T21:26:51.340Z,3.65
2022-10-23T21:29:19.350Z,1.73
2022-10-23T21:31:57.675Z,2.65
2022-10-23T21:34:25.977Z,3.88
2022-10-23T21:39:39.777Z,2.92
2022-10-23T21:42:06.781Z,2.95
2022-10-23T21:44:33.575Z,3.67
2022-10-23T21:47:00.255Z,5.15
2022-10-23T21:49:27.030Z,5.68
2022-10-23T21:51:54.945Z,4.10
2022-10-23T21:54:21.957Z,4.65
2022-10-23T21:56:50.989Z,4.45
2022-10-23T21:59:20.677Z,5.38
2022-10-23T22:01:48.794Z,4.95
2022-10-23T22:04:19.501Z,7.25
2022-10-23T22:06:49.661Z,3.03
2022-10-23T22:09:19.520Z,4.43
2022-10-23T22:11:47.859Z,4.55
2022-10-23T22:14:14.536Z,6.78
2022-10-23T22:16:42.173Z,6.13
2022-10-23T22:19:11.675Z,6.57
2022-10-23T22:21:38.767Z,8.13
2022-10-23T22:24:06.093Z,4.18
2022-10-23T22:26:36.069Z,8.30
2022-10-23T22:29:06.193Z,4.78
2022-10-23T22:31:34.124Z,6.93
2022-10-23T22:34:13.093Z,5.50
2022-10-23T22:36:48.875Z,8.68
2022-10-23T22:39:15.704Z,7.25
2022-10-23T22:41:43.613Z,5.30
2022-10-23T22:44:11.978Z,5.20
2022-10-23T22:46:39.078Z,5.40
2022-10-23T22:51:38.261Z,9.70
2022-10-23T22:54:06.965Z,6.47
2022-10-23T22:56:34.336Z,6.38
2022-10-23T22:59:01.019Z,5.25
2022-10-23T23:01:35.510Z,11.40
2022-10-23T23:04:13.795Z,11.20
2022-10-23T23:06:49.074Z,8.70
2022-10-23T23:09:18.028Z,5.90
2022-10-23T23:11:51.650Z,4.32
2022-10-23T23:14:23.136Z,7.55
2022-10-23T23:16:52.177Z,7.22
2022-10-23T23:19:18.917Z,6.30
2022-10-23T23:21:45.623Z,6.53
2022-10-23T23:24:12.402Z,7.97
2022-10-23T23:26:39.420Z,5.57
2022-10-23T23:29:06.321Z,8.13
2022-10-23T23:31:33.151Z,7.80
2022-10-23T23:33:59.895Z,10.65
2022-10-23T23:36:27.749Z,10.95
2022-10-23T23:38:56.447Z,5.82
2022-10-23T23:41:24.301Z,7.45
2022-10-23T23:43:53.993Z,10.90
2022-10-23T23:46:20.660Z,8.00
2022-10-23T23:48:49.328Z,9.10
2022-10-23T23:51:23.293Z,9.07
2022-10-23T23:53:51.150Z,10.98
2022-10-23T23:56:18.500Z,9.88
2022-10-23T23:58:45.265Z,8.07
